Time;durP1;ratioP1;P1;durP2;ratioP2;P2;SDS_P1;SDS_P2;PMS_P1;PMS_P2;Temp;Humidity;BMP_temperature;BMP_pressure;BME280_temperature;BME280_humidity;BME280_pressure;Samples;Min_cycle;Max_cycle;Signal;HPM_P1;HPM_P2
2022/04/10 00:00:35;;;;;;;;;30.00;27.00;;;;;7.07;90.40;101757.84;5077944;28;47348;-70
2022/04/10 00:03:00;;;;;;;;;26.25;23.00;;;;;7.04;89.85;101761.28;5079414;27;45476;-68
2022/04/10 00:05:25;;;;;;;;;33.00;27.25;;;;;7.00;90.50;101757.78;5079424;27;45477;-69
2022/04/10 00:07:51;;;;;;;;;19.25;19.00;;;;;7.01;91.29;101763.84;5079534;27;45444;-67
2022/04/10 00:10:16;;;;;;;;;28.00;27.50;;;;;6.95;91.20;101754.34;5079337;27;46452;-67
2022/04/10 00:12:44;;;;;;;;;38.50;28.75;;;;;6.92;91.55;101759.50;5079221;27;45377;-67
2022/04/10 00:15:11;;;;;;;;;37.75;32.00;;;;;6.88;91.38;101747.44;5079944;27;45283;-68
2022/04/10 00:17:37;;;;;;;;;31.75;27.75;;;;;6.88;91.91;101749.16;5080163;27;45258;-69
2022/04/10 00:20:03;;;;;;;;;42.25;29.25;;;;;6.86;92.09;101751.75;5079647;28;46272;-68
2022/04/10 00:22:28;;;;;;;;;27.25;26.00;;;;;6.85;92.24;101749.16;5079899;28;45430;-68
2022/04/10 00:24:53;;;;;;;;;26.25;22.00;;;;;6.83;92.59;101753.44;5079881;27;45412;-69
2022/04/10 00:27:19;;;;;;;;;30.50;28.25;;;;;6.80;92.17;101746.53;5078583;28;45559;-69
2022/04/10 00:29:45;;;;;;;;;29.50;27.50;;;;;6.76;92.60;101741.34;5095422;27;45661;-69
2022/04/10 00:32:11;;;;;;;;;33.75;32.50;;;;;6.73;93.02;101752.53;5079843;27;45330;-68
2022/04/10 00:34:36;;;;;;;;;31.50;27.00;;;;;6.75;92.88;101752.53;5078217;28;45377;-70
2022/04/10 00:37:02;;;;;;;;;32.50;30.50;;;;;6.70;92.66;101748.22;5073347;27;45457;-69
2022/04/10 00:39:27;;;;;;;;;38.75;31.75;;;;;6.69;92.42;101751.66;5078145;28;47997;-69
2022/04/10 00:41:52;;;;;;;;;42.50;29.75;;;;;6.66;92.38;101753.38;5079747;28;45419;-69
2022/04/10 00:44:18;;;;;;;;;41.25;35.00;;;;;6.64;92.21;101749.91;5079401;27;45460;-70
2022/04/10 00:46:43;;;;;;;;;38.00;30.00;;;;;6.61;92.55;101745.59;5079431;27;45415;-68
2022/04/10 00:49:09;;;;;;;;;35.50;32.25;;;;;6.59;92.25;101754.16;5078237;27;45324;-67
2022/04/10 00:51:41;;;;;;;;;42.00;31.50;;;;;6.58;92.49;101749.88;5079000;27;45241;-67
2022/04/10 00:54:30;;;;;;;;;41.25;35.50;;;;;6.56;92.59;101747.28;5077948;28;45422;-67
2022/04/10 00:56:57;;;;;;;;;38.25;30.75;;;;;6.53;92.65;101744.69;5081353;27;45282;-68
2022/04/10 00:59:23;;;;;;;;;36.25;32.50;;;;;6.52;92.96;101755.00;5082316;27;45471;-67
2022/04/10 01:01:49;;;;;;;;;41.00;29.50;;;;;6.51;93.07;101750.69;5082410;28;45532;-67
2022/04/10 01:04:14;;;;;;;;;40.00;31.00;;;;;6.48;92.57;101751.56;5082823;27;45367;-67
2022/04/10 01:06:41;;;;;;;;;36.00;32.00;;;;;6.46;93.79;101758.44;5081492;27;45809;-67
2022/04/10 01:09:07;;;;;;;;;32.00;25.00;;;;;6.43;93.92;101747.22;5082886;27;45645;-68
2022/04/10 01:11:34;;;;;;;;;36.25;28.50;;;;;6.41;93.78;101747.22;5082584;28;45541;-69
2022/04/10 01:14:00;;;;;;;;;40.25;31.50;;;;;6.38;93.62;101740.28;5081482;28;45394;-70
2022/04/10 01:16:27;;;;;;;;;37.50;32.50;;;;;6.38;93.69;101750.63;5082802;27;45279;-70
2022/04/10 01:18:54;;;;;;;;;40.50;35.50;;;;;6.36;94.25;101744.59;5082794;27;45609;-68
2022/04/10 01:21:25;;;;;;;;;36.00;29.00;;;;;6.34;94.37;101740.28;5082671;27;45712;-68
2022/04/10 01:23:52;;;;;;;;;38.25;34.25;;;;;6.30;94.44;101744.56;5083036;27;45169;-68
2022/04/10 01:26:17;;;;;;;;;36.75;29.50;;;;;6.31;94.58;101753.16;5082504;27;45477;-68
2022/04/10 01:29:07;;;;;;;;;43.00;31.75;;;;;6.28;94.79;101748.00;5081798;27;46306;-68
2022/04/10 01:31:35;;;;;;;;;34.75;24.25;;;;;6.27;94.95;101744.53;5082461;27;45314;-68
2022/04/10 01:34:03;;;;;;;;;39.00;34.25;;;;;6.24;94.76;101731.63;5082551;27;45251;-68
2022/04/10 01:36:30;;;;;;;;;38.50;35.50;;;;;6.24;95.00;101736.78;5081425;27;45420;-69
2022/04/10 01:38:58;;;;;;;;;37.25;32.50;;;;;6.21;95.37;101739.34;5082110;27;45446;-68
2022/04/10 01:41:25;;;;;;;;;35.25;33.25;;;;;6.20;95.27;101742.75;5081556;27;45285;-68
2022/04/10 01:43:51;;;;;;;;;47.00;36.50;;;;;6.16;95.41;101738.44;5079749;28;45393;-68
2022/04/10 01:46:17;;;;;;;;;45.00;36.50;;;;;6.15;95.80;101739.28;5081286;27;45609;-68
2022/04/10 01:48:42;;;;;;;;;42.50;35.75;;;;;6.11;94.46;101734.97;5079462;28;47824;-68
2022/04/10 01:51:09;;;;;;;;;36.50;31.00;;;;;6.10;96.07;101740.97;5081781;27;45516;-69
2022/04/10 01:53:35;;;;;;;;;37.00;34.75;;;;;6.08;96.20;101734.94;5082526;27;45307;-68
2022/04/10 01:56:04;;;;;;;;;44.50;35.00;;;;;6.07;96.51;101731.50;5082207;27;45419;-68
2022/04/10 01:58:33;;;;;;;;;45.50;34.75;;;;;6.06;95.99;101732.38;5080822;27;46599;-69
2022/04/10 02:01:05;;;;;;;;;39.00;28.00;;;;;6.05;96.36;101732.34;5079797;28;45430;-68
2022/04/10 02:03:31;;;;;;;;;38.25;30.50;;;;;6.02;96.19;101727.19;5080250;27;45560;-69
2022/04/10 02:05:57;;;;;;;;;42.00;37.25;;;;;6.02;96.54;101729.75;5081211;27;45504;-67
2022/04/10 02:08:22;;;;;;;;;37.75;31.50;;;;;5.98;97.30;101721.09;5079233;28;45366;-67
2022/04/10 02:10:47;;;;;;;;;39.50;35.00;;;;;5.96;96.77;101724.53;5082014;27;45279;-67
2022/04/10 02:13:13;;;;;;;;;42.00;37.75;;;;;5.92;96.04;101722.78;5081856;27;45466;-67
2022/04/10 02:15:39;;;;;;;;;32.75;28.75;;;;;5.89;96.43;101717.56;5080664;27;45363;-68
2022/04/10 02:18:05;;;;;;;;;39.25;33.00;;;;;5.89;96.71;101725.31;5079953;27;45802;-68
2022/04/10 02:20:30;;;;;;;;;41.25;35.50;;;;;5.88;96.46;101726.16;5079607;27;45409;-68
2022/04/10 02:22:56;;;;;;;;;46.50;36.00;;;;;5.83;96.34;101727.84;5081937;27;45266;-68
2022/04/10 02:25:21;;;;;;;;;27.25;25.75;;;;;5.82;96.12;101726.13;5081460;27;45313;-68
2022/04/10 02:27:47;;;;;;;;;45.00;39.00;;;;;5.77;96.41;101734.66;5078984;27;45633;-69
2022/04/10 02:30:13;;;;;;;;;45.50;35.50;;;;;5.70;96.09;101734.63;5095175;27;45461;-69
2022/04/10 02:32:41;;;;;;;;;42.00;39.25;;;;;5.70;96.61;101726.88;5079453;27;45359;-69
2022/04/10 02:35:08;;;;;;;;;43.00;34.00;;;;;5.68;96.34;101734.63;5076172;28;46223;-68
2022/04/10 02:37:34;;;;;;;;;39.75;36.00;;;;;5.68;96.88;101738.91;5074713;28;45548;-69
2022/04/10 02:39:59;;;;;;;;;40.75;39.00;;;;;5.64;96.52;101732.88;5079257;27;45855;-68
2022/04/10 02:42:27;;;;;;;;;37.50;34.25;;;;;5.63;97.08;101740.59;5081056;27;45358;-70
2022/04/10 02:44:53;;;;;;;;;45.00;35.00;;;;;5.60;97.09;101736.25;5081537;27;45464;-68
2022/04/10 02:47:18;;;;;;;;;44.00;37.00;;;;;5.58;97.11;101743.09;5080092;28;47221;-68
2022/04/10 02:49:43;;;;;;;;;38.25;28.75;;;;;5.55;96.36;101739.63;5080017;28;45259;-69
2022/04/10 02:52:09;;;;;;;;;47.50;36.75;;;;;5.53;96.59;101737.03;5081579;27;45253;-68
2022/04/10 02:54:34;;;;;;;;;44.25;36.00;;;;;5.53;96.53;101736.19;5081377;27;45270;-69
2022/04/10 02:56:59;;;;;;;;;35.50;32.25;;;;;5.53;96.69;101743.91;5081138;27;45554;-69
2022/04/10 02:59:25;;;;;;;;;39.75;31.75;;;;;5.52;96.24;101742.19;5081432;27;45295;-69
2022/04/10 03:01:50;;;;;;;;;37.25;31.75;;;;;5.52;96.15;101737.03;5079990;28;45354;-68
2022/04/10 03:04:16;;;;;;;;;34.25;29.00;;;;;5.49;96.14;101740.44;5081134;27;45235;-69
2022/04/10 03:06:42;;;;;;;;;49.00;32.50;;;;;5.46;95.78;101738.72;5080971;27;45434;-68
2022/04/10 03:09:08;;;;;;;;;38.00;32.00;;;;;5.45;96.13;101743.84;5079800;28;45388;-68
2022/04/10 03:11:34;;;;;;;;;35.25;32.25;;;;;5.43;95.31;101740.41;5081108;27;45312;-68
2022/04/10 03:13:59;;;;;;;;;37.50;32.00;;;;;5.43;95.89;101743.84;5079584;28;45420;-68
2022/04/10 03:16:24;;;;;;;;;30.75;30.00;;;;;5.43;96.12;101749.00;5080868;28;45332;-68
2022/04/10 03:18:51;;;;;;;;;41.25;34.25;;;;;5.41;96.20;101739.53;5079656;27;45421;-68
2022/04/10 03:21:17;;;;;;;;;36.50;31.75;;;;;5.42;96.94;101743.84;5080942;27;45422;-68
2022/04/10 03:23:43;;;;;;;;;36.25;31.00;;;;;5.38;96.28;101744.63;5079651;28;45450;-68
2022/04/10 03:26:08;;;;;;;;;41.00;33.75;;;;;5.38;97.08;101744.63;5080570;27;46675;-68
2022/04/10 03:28:34;;;;;;;;;42.50;31.75;;;;;5.39;97.08;101746.34;5080488;27;45316;-68
2022/04/10 03:30:59;;;;;;;;;30.00;29.75;;;;;5.36;96.80;101751.47;5080765;27;45200;-69
2022/04/10 03:33:24;;;;;;;;;36.75;32.00;;;;;5.36;96.89;101751.47;5080538;27;45275;-69
2022/04/10 03:35:50;;;;;;;;;32.25;28.25;;;;;5.35;96.13;101749.75;5073925;27;45312;-69
2022/04/10 03:38:16;;;;;;;;;37.25;34.25;;;;;5.33;96.30;101748.88;5080398;27;45327;-67
2022/04/10 03:40:41;;;;;;;;;39.00;32.75;;;;;5.32;97.30;101740.28;5080585;27;45395;-67
2022/04/10 03:43:06;;;;;;;;;36.00;31.25;;;;;5.30;96.88;101747.13;5079151;28;45518;-68
2022/04/10 03:45:32;;;;;;;;;38.00;34.00;;;;;5.30;97.42;101744.56;5080379;27;45233;-67
2022/04/10 03:47:58;;;;;;;;;36.75;30.25;;;;;5.29;97.33;101747.13;5080603;27;45174;-67
2022/04/10 03:50:24;;;;;;;;;38.25;31.00;;;;;5.27;97.67;101741.97;5080267;27;45452;-67
2022/04/10 03:52:49;;;;;;;;;33.25;28.25;;;;;5.27;97.56;101756.56;5079111;28;46266;-67
2022/04/10 03:55:15;;;;;;;;;33.50;32.50;;;;;5.25;97.48;101758.25;5080252;27;46241;-67
2022/04/10 03:57:40;;;;;;;;;37.75;30.75;;;;;5.23;98.03;101755.66;5080283;27;45383;-67
2022/04/10 04:00:06;;;;;;;;;33.00;29.50;;;;;5.23;97.87;101749.66;5079508;27;45354;-67
2022/04/10 04:02:34;;;;;;;;;42.00;36.75;;;;;5.21;97.83;101741.91;5077520;27;45563;-67
2022/04/10 04:05:00;;;;;;;;;41.00;31.25;;;;;5.19;98.31;101746.16;5078023;27;45807;-67
2022/04/10 04:07:25;;;;;;;;;41.75;32.00;;;;;5.18;98.92;101744.41;5078990;27;45318;-67
2022/04/10 04:09:50;;;;;;;;;42.25;37.75;;;;;5.18;98.88;101742.72;5077742;27;45441;-67
2022/04/10 04:12:16;;;;;;;;;39.00;35.33;;;;;5.16;98.35;101746.97;5077825;27;45359;-67
2022/04/10 04:14:41;;;;;;;;;37.50;36.50;;;;;5.17;98.85;101740.97;5077356;27;45570;-67
2022/04/10 04:17:07;;;;;;;;;41.50;37.00;;;;;5.15;99.04;101734.94;5077461;28;45308;-68
2022/04/10 04:19:32;;;;;;;;;44.25;39.25;;;;;5.14;99.50;101737.50;5078018;28;45481;-65
2022/04/10 04:21:57;;;;;;;;;47.00;39.75;;;;;5.14;99.30;101742.66;5077593;27;45629;-66
2022/04/10 04:24:23;;;;;;;;;39.50;38.25;;;;;5.12;99.47;101736.63;5077380;28;45678;-66
2022/04/10 04:26:49;;;;;;;;;41.50;38.25;;;;;5.12;99.53;101744.38;5079596;28;45283;-67
2022/04/10 04:29:14;;;;;;;;;47.50;36.50;;;;;5.09;100.00;101750.34;5074986;28;45302;-67
2022/04/10 04:31:39;;;;;;;;;37.75;34.75;;;;;5.08;99.98;101745.19;5078086;28;45934;-66
2022/04/10 04:34:07;;;;;;;;;42.75;36.00;;;;;5.06;99.89;101752.91;5079432;27;45326;-66
2022/04/10 04:36:32;;;;;;;;;43.75;34.00;;;;;5.03;99.90;101746.84;5071902;28;45874;-65
2022/04/10 04:38:57;;;;;;;;;39.75;33.50;;;;;5.01;100.00;101752.00;5079983;27;45314;-67
2022/04/10 04:41:23;;;;;;;;;38.25;34.00;;;;;5.02;100.00;101761.44;5078358;27;45371;-67
2022/04/10 04:43:48;;;;;;;;;37.25;35.25;;;;;4.97;100.00;101760.50;5079449;27;45305;-67
2022/04/10 04:46:14;;;;;;;;;49.50;37.75;;;;;4.98;100.00;101766.53;5079720;27;45235;-67
2022/04/10 04:48:39;;;;;;;;;48.50;36.50;;;;;4.96;100.00;101766.50;5079563;27;45247;-66
2022/04/10 04:51:05;;;;;;;;;35.75;26.25;;;;;4.95;100.00;101771.63;5079867;27;45377;-67
2022/04/10 04:53:30;;;;;;;;;37.33;35.67;;;;;4.93;100.00;101779.34;5079401;27;45533;-67
2022/04/10 04:55:55;;;;;;;;;43.67;40.00;;;;;4.92;100.00;101782.78;5079553;27;45285;-67
2022/04/10 04:58:21;;;;;;;;;35.75;32.75;;;;;4.89;100.00;101783.59;5079539;27;45334;-67
2022/04/10 05:00:47;;;;;;;;;37.25;28.00;;;;;4.84;100.00;101792.13;5079614;28;45258;-66
2022/04/10 05:03:15;;;;;;;;;37.25;30.50;;;;;4.84;100.00;101786.97;5079113;27;45316;-66
2022/04/10 05:05:40;;;;;;;;;30.50;29.50;;;;;4.81;100.00;101786.94;5079442;27;45255;-67
2022/04/10 05:08:06;;;;;;;;;36.25;32.00;;;;;4.79;100.00;101788.59;5078089;28;45349;-67
2022/04/10 05:10:32;;;;;;;;;43.25;37.00;;;;;4.79;100.00;101792.03;5079428;27;45486;-67
2022/04/10 05:12:57;;;;;;;;;39.25;32.00;;;;;4.77;100.00;101787.72;5079051;27;46391;-66
2022/04/10 05:15:22;;;;;;;;;41.25;33.25;;;;;4.75;100.00;101792.00;5077608;28;45497;-66
2022/04/10 05:17:48;;;;;;;;;37.00;31.25;;;;;4.73;100.00;101794.53;5079449;27;45302;-66
2022/04/10 05:20:13;;;;;;;;;38.25;30.00;;;;;4.72;100.00;101792.81;5079315;27;45525;-67
2022/04/10 05:22:38;;;;;;;;;40.50;29.25;;;;;4.69;100.00;101790.22;5079118;27;46428;-65
2022/04/10 05:25:04;;;;;;;;;40.75;29.00;;;;;4.72;100.00;101786.81;5079230;27;45302;-66
2022/04/10 05:27:30;;;;;;;;;38.00;33.25;;;;;4.71;100.00;101795.38;5077549;28;45316;-65
2022/04/10 05:29:55;;;;;;;;;41.50;38.75;;;;;4.73;100.00;101798.84;5078965;27;45194;-66
2022/04/10 05:32:20;;;;;;;;;38.00;36.75;;;;;4.74;100.00;101800.56;5079067;27;46231;-66
2022/04/10 05:34:46;;;;;;;;;37.00;32.75;;;;;4.75;100.00;101802.28;5078578;27;45279;-67
2022/04/10 05:37:12;;;;;;;;;39.50;34.00;;;;;4.78;100.00;101808.34;5077327;28;45499;-67
2022/04/10 05:39:39;;;;;;;;;46.50;36.00;;;;;4.80;100.00;101811.78;5078806;27;45216;-66
2022/04/10 05:42:06;;;;;;;;;40.25;34.50;;;;;4.81;100.00;101818.72;5080149;27;45282;-66
2022/04/10 05:44:32;;;;;;;;;49.25;40.25;;;;;4.83;100.00;101814.44;5082527;27;45717;-66
2022/04/10 05:46:57;;;;;;;;;43.00;40.50;;;;;4.85;100.00;101814.47;5082665;27;45325;-67
2022/04/10 05:49:23;;;;;;;;;45.25;39.75;;;;;4.88;100.00;101814.50;5069060;28;45582;-67
2022/04/10 05:51:50;;;;;;;;;42.00;33.25;;;;;4.88;100.00;101817.94;5082224;27;46317;-67
2022/04/10 05:54:15;;;;;;;;;45.00;36.25;;;;;4.90;100.00;101830.84;5082439;27;45306;-67
2022/04/10 05:56:41;;;;;;;;;43.25;39.75;;;;;4.91;100.00;101826.53;5082186;27;45394;-67
2022/04/10 05:59:06;;;;;;;;;50.50;43.00;;;;;4.94;100.00;101821.44;5081892;27;45576;-67
2022/04/10 06:01:32;;;;;;;;;36.25;32.75;;;;;4.95;100.00;101825.72;5081233;27;45370;-67
2022/04/10 06:03:57;;;;;;;;;47.25;36.50;;;;;4.99;100.00;101830.94;5081122;27;45282;-67
2022/04/10 06:06:22;;;;;;;;;46.25;35.00;;;;;5.02;100.00;101832.72;5080101;27;45260;-67
2022/04/10 06:08:48;;;;;;;;;42.50;39.00;;;;;5.05;99.97;101833.63;5081061;27;45500;-67
2022/04/10 06:11:13;;;;;;;;;42.00;37.00;;;;;5.10;100.00;101833.66;5080639;27;46445;-67
2022/04/10 06:13:38;;;;;;;;;39.25;35.25;;;;;5.15;100.00;101839.72;5077606;28;45443;-67
2022/04/10 06:16:04;;;;;;;;;48.75;40.50;;;;;5.22;99.74;101845.84;5080822;28;45311;-67
2022/04/10 06:18:29;;;;;;;;;46.75;35.50;;;;;5.27;99.59;101839.03;5080287;27;45356;-67
2022/04/10 06:20:55;;;;;;;;;45.50;37.75;;;;;5.32;100.00;101840.81;5080708;27;45406;-68
2022/04/10 06:23:23;;;;;;;;;57.25;45.00;;;;;5.43;99.77;101844.38;5080737;27;45277;-68
2022/04/10 06:25:49;;;;;;;;;56.25;44.00;;;;;5.49;100.00;101848.72;5080708;28;45314;-67
2022/04/10 06:28:14;;;;;;;;;50.00;38.25;;;;;5.54;99.46;101843.63;5080225;28;45609;-67
2022/04/10 06:30:40;;;;;;;;;42.50;38.75;;;;;5.59;99.75;101853.13;5081223;27;46033;-67
2022/04/10 06:33:05;;;;;;;;;57.50;43.25;;;;;5.64;100.00;101836.00;5080751;28;45346;-67
2022/04/10 06:35:31;;;;;;;;;43.25;41.00;;;;;5.72;99.46;101836.94;5076456;27;45287;-67
2022/04/10 06:37:56;;;;;;;;;43.50;37.00;;;;;5.82;99.37;101834.47;5079028;27;45202;-67
2022/04/10 06:40:22;;;;;;;;;49.33;42.00;;;;;5.90;99.64;101836.28;5080585;27;46281;-67
2022/04/10 06:42:47;;;;;;;;;53.00;42.50;;;;;5.99;99.47;101840.66;5080560;28;45223;-70
2022/04/10 06:45:13;;;;;;;;;52.75;40.50;;;;;6.08;99.02;101840.75;5081056;27;45287;-68
2022/04/10 06:47:38;;;;;;;;;51.00;40.75;;;;;6.14;98.97;101840.78;5080806;27;45291;-68
2022/04/10 06:50:04;;;;;;;;;47.00;42.00;;;;;6.22;98.53;101840.88;5062017;28;48331;-67
2022/04/10 06:52:29;;;;;;;;;52.25;40.75;;;;;6.32;98.66;101840.09;5080235;27;45326;-68
2022/04/10 06:54:55;;;;;;;;;48.50;40.75;;;;;6.42;98.46;101839.31;5080848;27;46655;-68
2022/04/10 06:57:20;;;;;;;;;52.00;39.50;;;;;6.50;98.26;101841.94;5080383;27;45638;-67
2022/04/10 06:59:45;;;;;;;;;38.00;34.75;;;;;6.59;97.83;101836.81;5080616;27;46179;-66
2022/04/10 07:02:11;;;;;;;;;49.50;40.25;;;;;6.64;97.70;101837.75;5080621;27;45378;-66
2022/04/10 07:04:36;;;;;;;;;45.75;38.75;;;;;6.76;97.12;101839.50;5079843;28;45326;-66
2022/04/10 07:07:02;;;;;;;;;52.50;39.00;;;;;6.84;97.16;101836.13;5080946;27;45573;-66
2022/04/10 07:09:27;;;;;;;;;53.00;42.00;;;;;6.96;98.22;101845.66;5079704;28;47401;-67
2022/04/10 07:11:52;;;;;;;;;47.75;40.25;;;;;7.05;97.55;101842.25;5093352;27;45699;-67
2022/04/10 07:14:18;;;;;;;;;50.67;44.33;;;;;7.13;96.46;101836.25;5073269;28;45314;-68
2022/04/10 07:16:43;;;;;;;;;49.25;42.00;;;;;7.24;96.80;101842.34;5080452;27;45236;-67
2022/04/10 07:19:08;;;;;;;;;53.50;44.25;;;;;7.27;96.44;101825.97;5080629;27;46308;-68
2022/04/10 07:24:18;;;;;;;;;49.75;45.50;;;;;7.47;96.49;101838.97;5075573;28;45239;-68
2022/04/10 07:26:44;;;;;;;;;56.25;42.75;;;;;7.60;96.37;101833.81;5080721;28;45479;-68
2022/04/10 07:29:12;;;;;;;;;55.25;43.50;;;;;7.69;96.34;101832.13;5080039;27;46348;-68
2022/04/10 07:31:38;;;;;;;;;59.25;46.25;;;;;7.81;95.24;101838.19;5093037;27;45201;-68
2022/04/10 07:34:03;;;;;;;;;53.00;44.00;;;;;7.93;94.69;101838.19;5073875;28;45799;-69
2022/04/10 07:36:31;;;;;;;;;61.00;45.75;;;;;8.02;95.74;101839.09;5078387;28;45390;-68
2022/04/10 07:38:57;;;;;;;;;57.75;45.75;;;;;8.11;96.08;101845.13;5079056;28;47213;-69
2022/04/10 07:41:22;;;;;;;;;57.25;45.75;;;;;8.25;96.26;101845.13;5080627;28;45887;-69
2022/04/10 07:43:48;;;;;;;;;60.00;44.75;;;;;8.36;95.67;101842.53;5079735;27;45495;-67
2022/04/10 07:48:57;;;;;;;;;54.00;45.75;;;;;8.66;94.54;101842.53;5078737;28;45366;-69
2022/04/10 07:51:22;;;;;;;;;54.50;44.75;;;;;8.79;94.43;101840.75;5075935;28;46175;-69
2022/04/10 07:53:48;;;;;;;;;55.00;45.25;;;;;8.95;93.94;101845.03;5073087;28;45516;-68
2022/04/10 07:56:14;;;;;;;;;62.25;47.25;;;;;9.06;93.22;101840.69;5079325;27;45438;-68
2022/04/10 07:58:39;;;;;;;;;52.00;43.75;;;;;9.20;93.59;101842.34;5079036;27;46077;-67
2022/04/10 08:01:04;;;;;;;;;54.67;43.67;;;;;9.28;91.44;101841.47;5079358;27;45425;-68
2022/04/10 08:03:30;;;;;;;;;47.33;39.33;;;;;9.32;91.42;101840.56;5079051;27;45417;-69
2022/04/10 08:05:56;;;;;;;;;43.00;38.75;;;;;9.44;91.11;101837.91;5078567;27;45378;-68
2022/04/10 08:08:21;;;;;;;;;47.00;38.50;;;;;9.56;90.24;101842.16;5079340;28;46221;-67
2022/04/10 08:10:47;;;;;;;;;46.00;37.75;;;;;9.69;90.41;101845.56;5079646;27;45453;-66
2022/04/10 08:13:12;;;;;;;;;39.50;32.25;;;;;9.85;90.55;101839.41;5076367;27;45327;-66
2022/04/10 08:15:37;;;;;;;;;29.75;23.00;;;;;9.95;89.76;101838.44;5079093;27;45251;-66
2022/04/10 08:18:03;;;;;;;;;29.00;22.50;;;;;10.03;87.93;101841.00;5078862;27;45340;-66
2022/04/10 08:20:30;;;;;;;;;18.00;14.75;;;;;10.12;86.60;101838.31;5076398;28;45858;-66
2022/04/10 08:22:59;;;;;;;;;15.25;12.75;;;;;10.22;85.69;101839.16;5079405;27;45307;-67
2022/04/10 08:25:25;;;;;;;;;17.00;13.00;;;;;10.31;85.03;101842.53;5076749;28;45383;-68
2022/04/10 08:27:51;;;;;;;;;12.25;12.25;;;;;10.35;84.30;101845.97;5079002;27;45763;-66
2022/04/10 08:30:16;;;;;;;;;27.75;17.75;;;;;10.42;84.83;101829.47;5080012;27;45275;-65
2022/04/10 08:32:43;;;;;;;;;22.50;18.50;;;;;10.50;83.74;101832.84;5074618;28;45771;-66
2022/04/10 08:35:10;;;;;;;;;32.75;23.50;;;;;10.60;85.24;101834.44;5077430;28;45493;-69
2022/04/10 08:37:36;;;;;;;;;29.25;24.25;;;;;10.67;84.57;101830.06;5075150;28;45484;-68
2022/04/10 08:40:03;;;;;;;;;27.50;24.75;;;;;10.72;85.30;101828.28;5079900;27;45361;-67
2022/04/10 08:42:28;;;;;;;;;25.25;24.00;;;;;10.77;83.98;101836.00;5079692;27;45331;-67
2022/04/10 08:44:58;;;;;;;;;26.25;21.25;;;;;10.83;84.19;101835.97;5079938;27;45213;-69
2022/04/10 08:47:24;;;;;;;;;23.25;16.25;;;;;10.90;83.95;101842.81;5079152;27;46592;-69
2022/04/10 08:49:51;;;;;;;;;15.75;15.75;;;;;10.88;84.09;101844.56;5078192;28;46022;-68
2022/04/10 08:52:18;;;;;;;;;18.25;11.50;;;;;10.92;80.30;101841.91;5079436;27;45352;-69
2022/04/10 08:54:47;;;;;;;;;12.33;8.00;;;;;10.98;83.29;101838.38;5074923;28;45315;-67
2022/04/10 08:57:14;;;;;;;;;9.00;8.00;;;;;11.06;81.66;101839.16;5072691;28;45258;-67
2022/04/10 08:59:40;;;;;;;;;13.25;8.00;;;;;11.18;81.85;101840.75;5071390;28;45891;-67
2022/04/10 09:02:06;;;;;;;;;6.00;6.00;;;;;11.26;81.68;101839.78;5079709;27;45619;-66
2022/04/10 09:04:34;;;;;;;;;6.25;6.00;;;;;11.36;81.13;101842.25;5079460;27;45484;-68
2022/04/10 09:07:00;;;;;;;;;10.00;8.75;;;;;11.44;80.84;101838.69;5079189;27;45313;-70
2022/04/10 09:09:26;;;;;;;;;11.50;10.00;;;;;11.51;81.07;101847.25;5078364;28;45266;-69
2022/04/10 09:11:55;;;;;;;;;8.50;7.50;;;;;11.59;77.04;101845.41;5079557;27;45521;-69
2022/04/10 09:14:33;;;;;;;;;7.75;7.75;;;;;11.60;79.72;101844.53;5079387;27;45393;-68
2022/04/10 09:17:15;;;;;;;;;4.75;3.75;;;;;11.60;80.33;101841.91;5079167;28;46595;-66
2022/04/10 09:19:42;;;;;;;;;8.75;8.00;;;;;11.69;79.21;101841.81;5082247;27;45707;-69
2022/04/10 09:22:22;;;;;;;;;7.00;6.00;;;;;11.81;79.04;101831.25;5082749;27;45291;-69
2022/04/10 09:25:07;;;;;;;;;7.50;7.50;;;;;11.88;79.95;101830.25;5081216;28;45433;-67
2022/04/10 09:27:43;;;;;;;;;8.25;5.00;;;;;11.92;79.54;101838.88;5080318;27;46228;-68
2022/04/10 09:30:12;;;;;;;;;11.00;6.00;;;;;11.94;78.40;101834.50;5081477;27;45336;-71
2022/04/10 09:32:45;;;;;;;;;7.00;7.00;;;;;11.92;77.44;101833.66;5081327;27;45507;-69
2022/04/10 09:35:15;;;;;;;;;6.25;5.25;;;;;11.97;77.21;101831.00;5077710;28;45714;-67
2022/04/10 09:37:51;;;;;;;;;5.50;5.00;;;;;12.01;76.42;101835.25;5080228;27;46049;-65
2022/04/10 09:40:25;;;;;;;;;8.75;7.00;;;;;12.01;72.44;101833.50;5079710;28;45379;-67
2022/04/10 09:42:57;;;;;;;;;7.75;6.75;;;;;11.96;76.67;101837.09;5076410;28;45436;-68
2022/04/10 09:45:27;;;;;;;;;7.50;7.00;;;;;12.00;73.76;101841.34;5080985;27;45292;-69
2022/04/10 09:47:52;;;;;;;;;11.75;7.00;;;;;12.00;75.43;101836.16;5071787;28;46346;-69
2022/04/10 09:50:17;;;;;;;;;7.75;7.75;;;;;12.13;75.61;101835.06;5080709;27;45231;-72
2022/04/10 09:52:43;;;;;;;;;10.75;7.00;;;;;12.21;75.63;101833.19;5081192;27;45181;-73
2022/04/10 09:55:35;;;;;;;;;10.00;8.25;;;;;12.28;75.22;101834.81;5080932;27;45493;-70
2022/04/10 09:58:05;;;;;;;;;8.00;7.25;;;;;12.38;75.29;101832.91;5079969;28;45433;-68
2022/04/10 10:00:30;;;;;;;;;7.75;7.75;;;;;12.34;72.61;101829.50;5078734;28;46227;-71
2022/04/10 10:02:57;;;;;;;;;11.25;8.50;;;;;12.25;74.44;101827.06;5080740;27;45388;-72
2022/04/10 10:05:23;;;;;;;;;11.00;6.25;;;;;12.36;74.28;101825.13;5080666;27;45453;-71
2022/04/10 10:07:49;;;;;;;;;14.50;8.00;;;;;12.48;74.45;101830.13;5080660;28;46500;-70
2022/04/10 10:10:19;;;;;;;;;9.50;6.50;;;;;12.58;76.30;101819.50;5080405;27;45420;-70
2022/04/10 10:12:46;;;;;;;;;13.75;5.00;;;;;12.60;73.31;101823.81;5080668;27;45428;-71
2022/04/10 10:15:12;;;;;;;;;12.25;8.50;;;;;12.69;75.87;101817.56;5080457;27;45439;-72
2022/04/10 10:17:37;;;;;;;;;8.50;5.00;;;;;12.76;74.44;101814.81;5080439;27;46666;-73
2022/04/10 10:20:05;;;;;;;;;5.00;5.00;;;;;12.88;73.20;101805.91;5080334;28;45288;-72
2022/04/10 10:22:31;;;;;;;;;7.25;7.25;;;;;12.97;75.48;101810.91;5080621;27;45253;-72
2022/04/10 10:25:08;;;;;;;;;10.00;8.50;;;;;13.05;74.40;101810.78;5080472;27;45429;-67
2022/04/10 10:28:11;;;;;;;;;9.25;6.00;;;;;13.13;72.75;101813.22;5076346;27;46153;-68
2022/04/10 10:31:14;;;;;;;;;6.50;6.50;;;;;13.19;74.52;101807.91;5076312;28;45876;-66
2022/04/10 10:33:49;;;;;;;;;6.50;6.50;;;;;13.24;72.22;101798.25;5079201;28;45508;-66
2022/04/10 10:36:22;;;;;;;;;6.00;6.00;;;;;13.09;70.49;101807.22;5076129;28;45263;-66
2022/04/10 10:38:52;;;;;;;;;10.50;7.50;;;;;13.01;72.20;101802.16;5077541;28;46711;-67
2022/04/10 10:41:18;;;;;;;;;6.00;6.00;;;;;13.04;69.12;101799.50;5080187;28;45826;-66
2022/04/10 10:43:44;;;;;;;;;6.25;6.00;;;;;13.07;72.28;101796.81;5078752;28;45362;-66
2022/04/10 10:46:32;;;;;;;;;8.50;6.25;;;;;13.24;73.40;101798.25;5079555;28;45563;-66
2022/04/10 10:49:20;;;;;;;;;10.00;6.00;;;;;13.38;71.94;101794.41;5078232;28;45613;-66
2022/04/10 10:51:54;;;;;;;;;5.75;5.25;;;;;13.52;72.49;101790.66;5079344;28;45781;-66
2022/04/10 10:54:34;;;;;;;;;8.00;7.50;;;;;13.64;72.69;101786.00;5077908;28;45568;-66
2022/04/10 10:57:38;;;;;;;;;6.75;5.00;;;;;13.72;71.26;101784.97;5078442;28;45605;-66
2022/04/10 11:00:17;;;;;;;;;4.50;4.50;;;;;13.78;70.96;101782.19;5079263;28;45339;-66
2022/04/10 11:02:53;;;;;;;;;10.00;4.50;;;;;13.83;71.44;101788.19;5078178;28;45993;-66
2022/04/10 11:05:33;;;;;;;;;7.75;6.00;;;;;13.79;70.16;101778.69;5079843;27;45528;-66
2022/04/10 11:08:08;;;;;;;;;7.25;5.50;;;;;13.81;70.34;101771.66;5077250;28;45260;-66
2022/04/10 11:10:52;;;;;;;;;7.75;6.75;;;;;13.89;66.50;101767.13;5077893;27;46192;-67
2022/04/10 11:13:19;;;;;;;;;7.50;5.25;;;;;13.96;70.55;101755.59;5078069;28;45332;-66
2022/04/10 11:15:49;;;;;;;;;9.50;5.25;;;;;14.06;69.05;101764.94;5079225;27;45479;-66
2022/04/10 11:18:23;;;;;;;;;4.25;4.25;;;;;14.15;69.42;101767.31;5078783;28;45526;-66
2022/04/10 11:20:56;;;;;;;;;9.50;5.00;;;;;14.22;69.59;101762.81;5076958;28;45485;-66
2022/04/10 11:23:28;;;;;;;;;4.75;3.75;;;;;14.28;68.76;101762.63;5078937;28;45337;-66